Aviation Digital Data Service (ADDS)

Output produced by METARs form (0950 UTC 21 November 2017)
found at http://aviationweather.gov/adds/metars/
 
KPBG 210532Z 2106/2206 VRB04KT P6SM OVC025 
     FM210800 18007KT P6SM SCT110 
     FM211200 18011KT P6SM FEW200 
     FM220300 18010KT P6SM BKN090